createdAt,value
2023-09-30T00:01:29.408Z,102566.13
2023-09-30T00:03:56.125Z,102578.56
2023-09-30T00:06:23.112Z,102584.03
2023-09-30T00:08:49.690Z,102579.06
2023-09-30T00:11:18.133Z,102588.56
2023-09-30T00:13:45.015Z,102588.94
2023-09-30T00:16:11.434Z,102585.91
2023-09-30T00:18:37.920Z,102578.25
2023-09-30T00:21:04.540Z,102582.69
2023-09-30T00:23:31.082Z,102574.31
2023-09-30T00:25:57.525Z,102576.50
2023-09-30T00:28:23.900Z,102575.56
2023-09-30T00:30:51.428Z,102573.47
2023-09-30T00:33:18.435Z,102581.94
2023-09-30T00:35:44.917Z,102583.25
2023-09-30T00:38:11.546Z,102582.66
2023-09-30T00:40:38.052Z,102594.81
2023-09-30T00:43:04.855Z,102600.94
2023-09-30T00:45:31.482Z,102602.81
2023-09-30T00:47:58.205Z,102599.44
2023-09-30T00:50:25.109Z,102605.47
2023-09-30T00:52:51.760Z,102613.97
2023-09-30T00:55:18.722Z,102618.88
2023-09-30T00:57:45.598Z,102619.94
2023-09-30T01:00:13.502Z,102623.81
2023-09-30T01:02:42.367Z,102617.47
2023-09-30T01:05:09.885Z,102616.59
2023-09-30T01:07:36.767Z,102616.53
2023-09-30T01:10:04.010Z,102621.59
2023-09-30T01:12:30.570Z,102621.59
2023-09-30T01:15:01.165Z,102616.66
2023-09-30T01:17:30.201Z,102615.03
2023-09-30T01:20:00.029Z,102621.03
2023-09-30T01:22:26.658Z,102616.97
2023-09-30T01:24:53.082Z,102626.16
2023-09-30T01:27:20.373Z,102636.72
2023-09-30T01:29:46.765Z,102642.09
2023-09-30T01:32:14.978Z,102650.16
2023-09-30T01:34:42.373Z,102644.53
2023-09-30T01:37:08.817Z,102639.94
2023-09-30T01:39:35.334Z,102645.78
2023-09-30T01:42:01.882Z,102630.72
2023-09-30T01:44:28.550Z,102637.16
2023-09-30T01:46:55.191Z,102634.34
2023-09-30T01:49:25.035Z,102629.47
2023-09-30T01:51:51.448Z,102632.50
2023-09-30T01:54:17.980Z,102636.63
2023-09-30T01:56:44.553Z,102632.72
2023-09-30T01:59:10.992Z,102631.22
2023-09-30T02:01:37.399Z,102618.91
2023-09-30T02:04:04.160Z,102614.81
2023-09-30T02:06:30.766Z,102613.09
2023-09-30T02:08:57.320Z,102606.47
2023-09-30T02:11:23.789Z,102617.94
2023-09-30T02:13:50.422Z,102623.94
2023-09-30T02:16:16.872Z,102629.56
2023-09-30T02:18:48.714Z,102634.81
2023-09-30T02:21:15.199Z,102633.13
2023-09-30T02:23:41.664Z,102632.38
2023-09-30T02:26:08.287Z,102623.63
2023-09-30T02:28:35.316Z,102627.22
2023-09-30T02:31:01.867Z,102631.59
2023-09-30T02:33:28.583Z,102628.91
2023-09-30T02:35:55.346Z,102627.50
2023-09-30T02:38:22.092Z,102621.69
2023-09-30T02:40:49.686Z,102617.56
2023-09-30T02:43:16.203Z,102618.53
2023-09-30T02:45:42.706Z,102610.88
2023-09-30T02:48:09.692Z,102613.16
2023-09-30T02:50:36.294Z,102614.63
2023-09-30T02:53:02.821Z,102608.50
2023-09-30T02:55:29.357Z,102615.41
2023-09-30T02:57:55.785Z,102606.72
2023-09-30T03:00:26.908Z,102612.00
2023-09-30T03:02:54.768Z,102616.63
2023-09-30T03:05:21.739Z,102607.75
2023-09-30T03:07:48.833Z,102604.06
2023-09-30T03:10:21.075Z,102610.69
2023-09-30T03:12:48.701Z,102606.44
2023-09-30T03:15:15.919Z,102614.66
2023-09-30T03:17:42.709Z,102618.78
2023-09-30T03:20:12.743Z,102609.91
2023-09-30T03:22:41.431Z,102614.25
2023-09-30T03:25:10.129Z,102608.06
2023-09-30T03:27:37.361Z,102602.84
2023-09-30T03:30:06.747Z,102604.84
2023-09-30T03:32:34.487Z,102605.59
2023-09-30T03:35:02.053Z,102604.84
2023-09-30T03:37:29.248Z,102600.41
2023-09-30T03:39:56.112Z,102602.19
2023-09-30T03:42:22.889Z,102611.06
2023-09-30T03:44:52.630Z,102601.47
2023-09-30T03:47:19.785Z,102603.31
2023-09-30T03:49:46.356Z,102598.41
2023-09-30T03:52:15.780Z,102607.28
2023-09-30T03:54:42.878Z,102610.28
2023-09-30T03:57:09.396Z,102606.63
2023-09-30T03:59:35.820Z,102603.16
2023-09-30T04:02:02.569Z,102606.53
2023-09-30T04:04:29.380Z,102604.75
2023-09-30T04:06:55.915Z,102601.94
2023-09-30T04:09:22.344Z,102605.78
2023-09-30T04:11:48.881Z,102606.88
2023-09-30T04:14:18.221Z,102608.38
2023-09-30T04:16:45.798Z,102610.47
2023-09-30T04:19:12.677Z,102611.69
2023-09-30T04:21:40.063Z,102611.91
2023-09-30T04:24:07.941Z,102617.28
2023-09-30T04:26:34.377Z,102612.00
2023-09-30T04:29:02.258Z,102611.22
2023-09-30T04:31:30.053Z,102612.94
2023-09-30T04:33:59.038Z,102625.97
2023-09-30T04:36:25.992Z,102624.44
2023-09-30T04:38:52.453Z,102627.28
2023-09-30T04:41:20.108Z,102629.94
2023-09-30T04:43:47.432Z,102628.97
2023-09-30T04:46:14.555Z,102638.03
2023-09-30T04:48:42.604Z,102622.75
2023-09-30T04:51:10.369Z,102628.13
2023-09-30T04:53:37.297Z,102625.13
2023-09-30T04:56:04.530Z,102632.56
2023-09-30T04:58:31.198Z,102634.81
2023-09-30T05:00:58.183Z,102636.34
2023-09-30T05:03:25.621Z,102636.91
2023-09-30T05:05:54.888Z,102638.13
2023-09-30T05:08:21.290Z,102645.59
2023-09-30T05:10:47.753Z,102647.66
2023-09-30T05:13:14.146Z,102645.22
2023-09-30T05:15:42.930Z,102650.59
2023-09-30T05:18:10.720Z,102647.00
2023-09-30T05:20:38.854Z,102642.34
2023-09-30T05:23:07.998Z,102640.09
2023-09-30T05:25:34.446Z,102632.38
2023-09-30T05:28:00.920Z,102635.53
2023-09-30T05:30:27.401Z,102644.41
2023-09-30T05:32:54.171Z,102648.75
2023-09-30T05:35:23.369Z,102648.69
2023-09-30T05:37:53.125Z,102648.09
2023-09-30T05:40:25.958Z,102643.31
2023-09-30T05:42:54.488Z,102657.09
2023-09-30T05:45:21.392Z,102661.53
2023-09-30T05:47:50.999Z,102656.41
2023-09-30T05:50:24.978Z,102655.66
2023-09-30T05:52:56.170Z,102641.63
2023-09-30T05:55:23.634Z,102646.91
2023-09-30T05:57:51.130Z,102639.56
2023-09-30T06:00:24.867Z,102648.06
2023-09-30T06:02:53.257Z,102650.50
2023-09-30T06:05:20.409Z,102649.25
2023-09-30T06:07:47.831Z,102649.63
2023-09-30T06:10:19.408Z,102654.72
2023-09-30T06:12:49.983Z,102654.34
2023-09-30T06:15:17.433Z,102663.91
2023-09-30T06:17:44.194Z,102660.94
2023-09-30T06:20:17.390Z,102654.28
2023-09-30T06:22:46.352Z,102643.13
2023-09-30T06:25:19.308Z,102638.50
2023-09-30T06:27:47.220Z,102651.63
2023-09-30T06:30:14.719Z,102652.94
2023-09-30T06:32:41.557Z,102660.28
2023-09-30T06:35:11.231Z,102664.25
2023-09-30T06:37:41.041Z,102665.56
2023-09-30T06:40:09.581Z,102675.75
2023-09-30T06:42:36.794Z,102679.34
2023-09-30T06:45:07.227Z,102681.03
2023-09-30T06:47:37.956Z,102684.22
2023-09-30T06:50:08.802Z,102685.94
2023-09-30T06:52:36.427Z,102692.72
2023-09-30T06:55:05.546Z,102689.38
2023-09-30T06:57:36.573Z,102686.06
2023-09-30T07:00:09.874Z,102697.44
2023-09-30T07:02:37.400Z,102707.16
2023-09-30T07:05:10.952Z,102715.16
2023-09-30T07:07:37.548Z,102716.16
2023-09-30T07:10:07.955Z,102717.25
2023-09-30T07:12:36.973Z,102717.16
2023-09-30T07:15:05.735Z,102724.06
2023-09-30T07:17:35.990Z,102721.31
2023-09-30T07:20:03.946Z,102720.81
2023-09-30T07:24:59.968Z,102727.69
2023-09-30T07:27:28.580Z,102714.50
2023-09-30T07:29:55.620Z,102724.19
2023-09-30T07:32:24.626Z,102729.13
2023-09-30T07:34:51.634Z,102731.84
2023-09-30T07:37:19.754Z,102737.84
2023-09-30T07:39:46.676Z,102732.44
2023-09-30T07:42:13.253Z,102732.31
2023-09-30T07:44:39.692Z,102737.38
2023-09-30T07:47:10.551Z,102733.66
2023-09-30T07:49:37.065Z,102743.00
2023-09-30T07:52:04.813Z,102745.97
2023-09-30T07:54:32.318Z,102751.81
2023-09-30T07:57:00.253Z,102735.59
2023-09-30T07:59:27.967Z,102745.06
2023-09-30T08:01:54.585Z,102747.72
2023-09-30T08:04:21.285Z,102743.31
2023-09-30T08:06:48.197Z,102749.28
2023-09-30T08:09:15.152Z,102743.44
2023-09-30T08:11:41.676Z,102741.19
2023-09-30T08:14:10.192Z,102723.69
2023-09-30T08:16:37.985Z,102734.97
2023-09-30T08:19:05.234Z,102725.78
2023-09-30T08:21:32.168Z,102728.56
2023-09-30T08:23:59.197Z,102725.31
2023-09-30T08:26:25.787Z,102725.75
2023-09-30T08:28:52.337Z,102715.63
2023-09-30T08:31:18.969Z,102712.59
2023-09-30T08:33:46.896Z,102711.75
2023-09-30T08:36:13.818Z,102721.34
2023-09-30T08:38:41.653Z,102718.19
2023-09-30T08:41:08.504Z,102723.88
2023-09-30T08:43:40.639Z,102735.34
2023-09-30T08:46:07.822Z,102729.47
2023-09-30T08:48:35.204Z,102738.28
2023-09-30T08:51:03.194Z,102742.84
2023-09-30T08:53:30.669Z,102732.03
2023-09-30T08:55:59.977Z,102728.50
2023-09-30T08:58:30.297Z,102732.09
2023-09-30T09:00:57.594Z,102732.31
2023-09-30T09:03:24.869Z,102727.75
2023-09-30T09:05:57.217Z,102734.47
2023-09-30T09:08:27.569Z,102734.38
2023-09-30T09:11:06.700Z,102737.56
2023-09-30T09:14:01.132Z,102744.56
2023-09-30T09:16:27.602Z,102750.47
2023-09-30T09:18:54.446Z,102753.56
2023-09-30T09:21:24.136Z,102748.38
2023-09-30T09:23:52.783Z,102762.91
2023-09-30T09:26:26.888Z,102764.00
2023-09-30T09:29:01.268Z,102771.53
2023-09-30T09:31:29.911Z,102784.84
2023-09-30T09:33:56.921Z,102791.00
2023-09-30T09:36:43.014Z,102780.97
2023-09-30T09:39:09.825Z,102782.72
2023-09-30T09:41:54.404Z,102774.25
2023-09-30T09:44:23.025Z,102783.56
2023-09-30T09:46:51.392Z,102780.91
2023-09-30T09:49:19.621Z,102788.72
2023-09-30T09:51:47.801Z,102780.81
2023-09-30T09:54:16.012Z,102785.84
2023-09-30T09:56:45.396Z,102790.13
2023-09-30T09:59:14.318Z,102791.31
2023-09-30T10:01:46.516Z,102792.19
2023-09-30T10:04:16.148Z,102790.84
2023-09-30T10:06:46.044Z,102795.03
2023-09-30T10:09:15.214Z,102795.75
2023-09-30T10:11:43.020Z,102793.31
2023-09-30T10:14:15.752Z,102781.59
2023-09-30T10:16:44.959Z,102768.81
2023-09-30T10:19:31.794Z,102767.41
2023-09-30T10:22:23.257Z,102762.81
2023-09-30T10:25:02.541Z,102756.44
2023-09-30T10:27:33.401Z,102755.41
2023-09-30T10:30:02.898Z,102759.94
2023-09-30T10:32:51.231Z,102751.69
2023-09-30T10:35:18.774Z,102747.75
2023-09-30T10:37:46.313Z,102744.34
2023-09-30T10:40:32.981Z,102731.63
2023-09-30T10:42:59.601Z,102736.22
2023-09-30T10:45:42.112Z,102736.03
2023-09-30T10:48:37.939Z,102740.31
2023-09-30T10:51:22.095Z,102743.94
2023-09-30T10:53:54.069Z,102736.84
2023-09-30T10:56:21.353Z,102742.09
2023-09-30T10:58:50.359Z,102738.09
2023-09-30T11:01:19.099Z,102729.94
2023-09-30T11:03:47.218Z,102736.19
2023-09-30T11:06:18.527Z,102734.63
2023-09-30T11:08:52.083Z,102723.41
2023-09-30T11:11:18.521Z,102726.97
2023-09-30T11:13:45.431Z,102723.09
2023-09-30T11:16:11.931Z,102732.84
2023-09-30T11:18:41.231Z,102737.28
2023-09-30T11:21:13.942Z,102738.69
2023-09-30T11:23:42.435Z,102732.78
2023-09-30T11:26:08.975Z,102730.50
2023-09-30T11:28:40.808Z,102720.47
2023-09-30T11:31:13.100Z,102722.38
2023-09-30T11:33:52.928Z,102721.81
2023-09-30T11:36:23.654Z,102716.94
2023-09-30T11:38:54.203Z,102709.22
2023-09-30T11:41:21.143Z,102707.47
2023-09-30T11:44:02.466Z,102710.78
2023-09-30T11:46:29.187Z,102693.63
2023-09-30T11:49:01.246Z,102701.44
2023-09-30T11:51:32.231Z,102713.53
2023-09-30T11:53:58.896Z,102721.03
2023-09-30T11:56:30.285Z,102722.38
2023-09-30T11:58:57.712Z,102724.00
2023-09-30T12:01:26.374Z,102716.66
2023-09-30T12:03:56.953Z,102715.22
2023-09-30T12:06:25.049Z,102711.59
2023-09-30T12:08:52.791Z,102708.25
2023-09-30T12:11:20.192Z,102696.66
2023-09-30T12:13:49.432Z,102705.78
2023-09-30T12:16:17.102Z,102695.34
2023-09-30T12:18:43.632Z,102693.75
2023-09-30T12:21:14.530Z,102703.34
2023-09-30T12:23:41.395Z,102688.44
2023-09-30T12:26:14.927Z,102685.19
2023-09-30T12:28:42.064Z,102679.16
2023-09-30T12:31:08.666Z,102672.97
2023-09-30T12:33:35.228Z,102669.22
2023-09-30T12:36:01.818Z,102669.44
2023-09-30T12:38:29.303Z,102673.94
2023-09-30T12:40:56.453Z,102667.53
2023-09-30T12:43:23.369Z,102674.47
2023-09-30T12:45:49.818Z,102684.13
2023-09-30T12:48:16.383Z,102681.50
2023-09-30T12:50:42.846Z,102667.84
2023-09-30T12:53:09.225Z,102670.47
2023-09-30T12:55:35.612Z,102674.09
2023-09-30T12:58:02.052Z,102680.13
2023-09-30T13:00:31.920Z,102677.31
2023-09-30T13:02:59.050Z,102679.78
2023-09-30T13:05:26.476Z,102675.75
2023-09-30T13:07:53.795Z,102673.06
2023-09-30T13:10:20.528Z,102674.09
2023-09-30T13:12:47.176Z,102674.78
2023-09-30T13:15:15.324Z,102671.09
2023-09-30T13:17:41.814Z,102675.53
2023-09-30T13:20:10.033Z,102672.56
2023-09-30T13:22:40.015Z,102668.56
2023-09-30T13:25:09.137Z,102659.06
2023-09-30T13:27:35.859Z,102653.25
2023-09-30T13:30:02.623Z,102645.47
2023-09-30T13:32:29.212Z,102651.88
2023-09-30T13:34:55.782Z,102658.81
2023-09-30T13:37:23.540Z,102659.44
2023-09-30T13:39:51.359Z,102638.63
2023-09-30T13:42:18.806Z,102634.50
2023-09-30T13:44:45.252Z,102635.44
2023-09-30T13:47:11.744Z,102639.19
2023-09-30T13:49:38.135Z,102644.09
2023-09-30T13:52:05.324Z,102641.84
2023-09-30T13:54:32.113Z,102644.16
2023-09-30T13:56:58.499Z,102643.75
2023-09-30T13:59:24.950Z,102648.63
2023-09-30T14:01:51.604Z,102648.56
2023-09-30T14:04:18.063Z,102649.72
2023-09-30T14:06:44.621Z,102629.59
2023-09-30T14:09:25.090Z,102640.59
2023-09-30T14:11:56.083Z,102634.25
2023-09-30T14:14:22.587Z,102621.38
2023-09-30T14:16:49.157Z,102619.94
2023-09-30T14:19:15.712Z,102618.59
2023-09-30T14:21:42.371Z,102622.88
2023-09-30T14:24:09.304Z,102621.53
2023-09-30T14:26:35.827Z,102618.59
2023-09-30T14:29:02.269Z,102620.03
2023-09-30T14:31:28.726Z,102619.22
2023-09-30T14:33:55.640Z,102616.44
2023-09-30T14:36:23.839Z,102605.72
2023-09-30T14:39:00.508Z,102617.16
2023-09-30T14:41:37.048Z,102612.56
2023-09-30T14:44:08.675Z,102609.81
2023-09-30T14:46:36.193Z,102599.00
2023-09-30T14:49:02.803Z,102606.63
2023-09-30T14:51:29.259Z,102605.38
2023-09-30T14:53:55.679Z,102595.00
2023-09-30T14:56:22.587Z,102603.97
2023-09-30T14:58:49.028Z,102603.38
2023-09-30T15:01:15.789Z,102600.78
2023-09-30T15:03:42.744Z,102599.38
2023-09-30T15:06:10.373Z,102598.41
2023-09-30T15:08:37.317Z,102601.94
2023-09-30T15:11:04.228Z,102592.94
2023-09-30T15:13:31.404Z,102593.69
2023-09-30T15:15:57.991Z,102581.47
2023-09-30T15:18:24.533Z,102575.28
2023-09-30T15:20:51.362Z,102591.91
2023-09-30T15:23:17.757Z,102591.53
2023-09-30T15:25:45.100Z,102601.31
2023-09-30T15:28:14.928Z,102596.28
2023-09-30T15:30:42.067Z,102591.09
2023-09-30T15:33:09.606Z,102588.75
2023-09-30T15:35:36.365Z,102589.03
2023-09-30T15:38:02.865Z,102589.19
2023-09-30T15:40:29.510Z,102585.13
2023-09-30T15:42:56.014Z,102582.88
2023-09-30T15:45:22.918Z,102583.44
2023-09-30T15:47:49.507Z,102579.19
2023-09-30T15:50:16.857Z,102579.19
2023-09-30T15:52:45.343Z,102569.25
2023-09-30T15:55:12.245Z,102572.19
2023-09-30T15:57:43.394Z,102565.56
2023-09-30T16:00:11.310Z,102568.94
2023-09-30T16:02:37.850Z,102567.41
2023-09-30T16:05:04.659Z,102565.16
2023-09-30T16:07:31.142Z,102566.28
2023-09-30T16:09:57.723Z,102562.09
2023-09-30T16:12:24.160Z,102566.84
2023-09-30T16:14:50.861Z,102561.66
2023-09-30T16:17:18.382Z,102568.78
2023-09-30T16:19:44.856Z,102575.22
2023-09-30T16:22:11.372Z,102580.25
2023-09-30T16:24:37.862Z,102578.25
2023-09-30T16:27:05.166Z,102587.25
2023-09-30T16:29:31.558Z,102584.94
2023-09-30T16:31:58.006Z,102578.47
2023-09-30T16:34:24.487Z,102590.81
2023-09-30T16:36:50.966Z,102593.03
2023-09-30T16:39:17.852Z,102591.63
2023-09-30T16:41:44.278Z,102593.56
2023-09-30T16:44:10.732Z,102591.88
2023-09-30T16:46:37.642Z,102595.66
2023-09-30T16:49:04.171Z,102597.03
2023-09-30T16:51:30.850Z,102607.00
2023-09-30T16:53:57.416Z,102607.38
2023-09-30T16:56:26.890Z,102598.22
2023-09-30T16:58:55.698Z,102594.53
2023-09-30T17:01:23.293Z,102599.22
2023-09-30T17:03:50.061Z,102588.63
2023-09-30T17:06:17.273Z,102583.38
2023-09-30T17:08:43.752Z,102595.50
2023-09-30T17:11:11.518Z,102590.56
2023-09-30T17:13:38.166Z,102591.41
2023-09-30T17:16:07.238Z,102593.81
2023-09-30T17:18:34.912Z,102587.06
2023-09-30T17:21:01.473Z,102585.88
2023-09-30T17:23:27.984Z,102578.66
2023-09-30T17:26:01.069Z,102583.88
2023-09-30T17:28:27.664Z,102595.50
2023-09-30T17:30:54.175Z,102594.81
2023-09-30T17:33:20.943Z,102610.72
2023-09-30T17:35:48.198Z,102596.72
2023-09-30T17:38:14.679Z,102596.47
2023-09-30T17:40:41.358Z,102603.50
2023-09-30T17:43:08.393Z,102596.25
2023-09-30T17:45:35.014Z,102589.75
2023-09-30T17:48:02.137Z,102597.94
2023-09-30T17:50:28.650Z,102594.06
2023-09-30T17:52:55.113Z,102597.94
2023-09-30T17:55:21.582Z,102598.84
2023-09-30T17:57:48.045Z,102610.28
2023-09-30T18:00:15.127Z,102590.69
2023-09-30T18:02:41.646Z,102589.00
2023-09-30T18:05:08.848Z,102590.69
2023-09-30T18:07:36.399Z,102596.72
2023-09-30T18:10:03.344Z,102591.28
2023-09-30T18:12:29.805Z,102589.00
2023-09-30T18:14:56.218Z,102584.72
2023-09-30T18:17:22.667Z,102590.88
2023-09-30T18:19:50.279Z,102589.00
2023-09-30T18:22:16.752Z,102588.88
2023-09-30T18:24:43.252Z,102587.78
2023-09-30T18:27:09.721Z,102592.16
2023-09-30T18:29:36.126Z,102597.81
2023-09-30T18:32:03.957Z,102594.53
2023-09-30T18:34:30.713Z,102582.69
2023-09-30T18:36:57.131Z,102584.84
2023-09-30T18:39:26.740Z,102585.72
2023-09-30T18:41:53.636Z,102593.06
2023-09-30T18:44:20.057Z,102592.56
2023-09-30T18:46:46.579Z,102596.31
2023-09-30T18:49:13.128Z,102604.28
2023-09-30T18:51:39.548Z,102594.63
2023-09-30T18:54:10.006Z,102587.72
2023-09-30T18:56:38.193Z,102587.97
2023-09-30T18:59:04.934Z,102587.25
2023-09-30T19:01:31.691Z,102584.81
2023-09-30T19:03:58.651Z,102586.97
2023-09-30T19:06:25.420Z,102570.69
2023-09-30T19:08:51.818Z,102568.16
2023-09-30T19:11:19.806Z,102563.56
2023-09-30T19:13:46.744Z,102570.34
2023-09-30T19:16:13.418Z,102565.66
2023-09-30T19:18:39.871Z,102570.38
2023-09-30T19:21:07.438Z,102584.22
2023-09-30T19:23:34.193Z,102592.81
2023-09-30T19:26:00.781Z,102579.66
2023-09-30T19:28:27.267Z,102580.13
2023-09-30T19:30:53.983Z,102588.44
2023-09-30T19:33:20.514Z,102586.25
2023-09-30T19:35:47.053Z,102578.78
2023-09-30T19:38:13.610Z,102577.53
2023-09-30T19:40:40.091Z,102587.44
2023-09-30T19:43:06.698Z,102576.06
2023-09-30T19:45:33.232Z,102585.97
2023-09-30T19:48:00.042Z,102587.16
2023-09-30T19:50:28.439Z,102592.00
2023-09-30T19:52:55.163Z,102595.56
2023-09-30T19:55:21.785Z,102592.47
2023-09-30T19:57:48.508Z,102580.41
2023-09-30T20:00:18.740Z,102570.97
2023-09-30T20:02:46.600Z,102580.03
2023-09-30T20:05:14.425Z,102593.16
2023-09-30T20:07:41.301Z,102604.41
2023-09-30T20:10:09.925Z,102589.53
2023-09-30T20:12:37.200Z,102591.22
2023-09-30T20:15:03.979Z,102602.59
2023-09-30T20:17:30.533Z,102596.31
2023-09-30T20:19:56.947Z,102588.38
2023-09-30T20:22:23.525Z,102594.41
2023-09-30T20:24:52.052Z,102609.34
2023-09-30T20:27:18.564Z,102604.56
2023-09-30T20:29:46.348Z,102598.28
2023-09-30T20:32:12.822Z,102597.44
2023-09-30T20:34:40.314Z,102597.09
2023-09-30T20:37:06.756Z,102597.69
2023-09-30T20:39:33.479Z,102600.47
2023-09-30T20:41:59.902Z,102608.31
2023-09-30T20:44:26.353Z,102603.63
2023-09-30T20:46:52.872Z,102606.78
2023-09-30T20:49:19.726Z,102609.91
2023-09-30T20:51:46.634Z,102601.94
2023-09-30T20:54:13.300Z,102605.34
2023-09-30T20:56:40.577Z,102609.69
2023-09-30T20:59:07.188Z,102610.03
2023-09-30T21:01:34.427Z,102603.63
2023-09-30T21:04:01.165Z,102587.06
2023-09-30T21:06:27.569Z,102593.00
2023-09-30T21:08:53.980Z,102595.31
2023-09-30T21:11:21.400Z,102597.59
2023-09-30T21:13:49.951Z,102588.66
2023-09-30T21:16:16.450Z,102586.50
2023-09-30T21:18:42.995Z,102577.81
2023-09-30T21:21:12.875Z,102572.53
2023-09-30T21:23:39.797Z,102573.13
2023-09-30T21:26:06.258Z,102572.25
2023-09-30T21:28:32.814Z,102566.03
2023-09-30T21:31:00.948Z,102578.06
2023-09-30T21:33:27.577Z,102571.78
2023-09-30T21:35:56.029Z,102579.66
2023-09-30T21:38:22.788Z,102563.81
2023-09-30T21:40:50.194Z,102563.81
2023-09-30T21:43:16.708Z,102561.16
2023-09-30T21:45:43.176Z,102566.97
2023-09-30T21:48:09.646Z,102590.13
2023-09-30T21:50:36.807Z,102580.34
2023-09-30T21:53:03.788Z,102582.88
2023-09-30T21:55:30.947Z,102584.81
2023-09-30T21:57:57.554Z,102570.84
2023-09-30T22:00:37.632Z,102562.75
2023-09-30T22:03:06.114Z,102556.59
2023-09-30T22:05:32.855Z,102564.31
2023-09-30T22:07:59.539Z,102554.66
2023-09-30T22:10:27.159Z,102552.97
2023-09-30T22:12:53.785Z,102559.25
2023-09-30T22:15:20.781Z,102558.63
2023-09-30T22:17:47.924Z,102557.91
2023-09-30T22:20:14.806Z,102557.91
2023-09-30T22:22:41.562Z,102562.38
2023-09-30T22:25:09.165Z,102553.69
2023-09-30T22:27:35.629Z,102551.75
2023-09-30T22:30:02.495Z,102553.44
2023-09-30T22:32:28.927Z,102561.28
2023-09-30T22:34:55.407Z,102562.38
2023-09-30T22:37:21.846Z,102564.91
2023-09-30T22:39:48.302Z,102554.16
2023-09-30T22:42:14.789Z,102537.28
2023-09-30T22:44:41.211Z,102538.97
2023-09-30T22:47:07.761Z,102535.34
2023-09-30T22:49:34.211Z,102524.72
2023-09-30T22:52:00.734Z,102519.16
2023-09-30T22:54:29.036Z,102512.78
2023-09-30T22:56:55.747Z,102510.25
2023-09-30T22:59:23.424Z,102506.63
2023-09-30T23:01:50.081Z,102513.63
2023-09-30T23:04:16.727Z,102508.31
2023-09-30T23:06:43.437Z,102516.41
2023-09-30T23:09:11.753Z,102510.00
2023-09-30T23:11:41.672Z,102501.06
2023-09-30T23:14:08.253Z,102502.75
2023-09-30T23:16:35.511Z,102506.16
2023-09-30T23:19:05.880Z,102505.16
2023-09-30T23:21:32.432Z,102505.31
2023-09-30T23:23:59.025Z,102494.56
2023-09-30T23:26:25.605Z,102489.94
2023-09-30T23:28:52.114Z,102494.56
2023-09-30T23:31:19.264Z,102480.31
2023-09-30T23:33:49.412Z,102477.88
2023-09-30T23:36:16.180Z,102486.34
2023-09-30T23:38:45.522Z,102483.19
2023-09-30T23:41:12.238Z,102472.34
2023-09-30T23:43:41.713Z,102474.50
2023-09-30T23:46:09.680Z,102480.03
2023-09-30T23:48:36.875Z,102482.19
2023-09-30T23:51:05.540Z,102486.78
2023-09-30T23:53:36.097Z,102477.63
2023-09-30T23:56:06.574Z,102478.34
2023-09-30T23:58:33.087Z,102474.72
